Time;durP1;ratioP1;P1;durP2;ratioP2;P2;SDS_P1;SDS_P2;PMS_P1;PMS_P2;Temp;Humidity;BMP_temperature;BMP_pressure;BME280_temperature;BME280_humidity;BME280_pressure;Samples;Min_cycle;Max_cycle;Signal;HPM_P1;HPM_P2
2022/01/16 00:00:08;;;;;;;60.92;28.30;;;;;;;-2.94;100.00;101590.06;5590584;31;34559;-70
2022/01/16 00:06:39;;;;;;;67.50;26.48;;;;;;;-3.00;100.00;101590.31;5590480;31;34240;-70
2022/01/16 00:09:42;;;;;;;60.30;25.67;;;;;;;-3.05;100.00;101584.41;5589809;31;34089;-70
2022/01/16 00:12:49;;;;;;;60.12;25.10;;;;;;;-3.12;100.00;101566.44;5590525;31;34903;-70
2022/01/16 00:15:51;;;;;;;56.60;24.65;;;;;;;-3.01;100.00;101565.22;5590410;31;34821;-70
2022/01/16 00:18:54;;;;;;;46.40;21.60;;;;;;;-3.06;100.00;101544.63;5590419;31;34084;-70
2022/01/16 00:21:58;;;;;;;50.12;23.35;;;;;;;-2.86;100.00;101580.28;5590727;31;34608;-71
2022/01/16 00:25:02;;;;;;;54.92;23.15;;;;;;;-3.01;100.00;101579.06;5590456;31;34315;-70
2022/01/16 00:28:05;;;;;;;53.03;21.60;;;;;;;-3.05;100.00;101574.03;5590441;31;34191;-71
2022/01/16 00:31:08;;;;;;;43.13;20.67;;;;;;;-3.08;100.00;101619.09;5590358;31;34264;-71
2022/01/16 00:34:12;;;;;;;44.75;20.27;;;;;;;-3.12;100.00;101591.56;5590334;31;34814;-70
2022/01/16 00:37:15;;;;;;;40.92;20.42;;;;;;;-3.09;100.00;101558.53;5590361;31;34674;-70
2022/01/16 00:40:18;;;;;;;43.90;20.10;;;;;;;-3.03;100.00;101583.44;5590259;31;34099;-70
2022/01/16 00:43:20;;;;;;;47.47;19.55;;;;;;;-3.02;100.00;101579.09;5590079;31;34190;-70
2022/01/16 00:46:23;;;;;;;46.53;20.17;;;;;;;-2.91;100.00;101564.03;5590477;31;34574;-71
2022/01/16 00:49:26;;;;;;;45.30;19.65;;;;;;;-2.97;100.00;101544.31;5590077;31;34885;-71
2022/01/16 00:52:28;;;;;;;45.63;17.87;;;;;;;-3.00;100.00;101546.16;5589031;31;34829;-71
2022/01/16 00:55:32;;;;;;;43.17;16.90;;;;;;;-3.13;100.00;101548.31;5590071;31;34189;-71
2022/01/16 00:58:35;;;;;;;37.53;17.55;;;;;;;-3.27;100.00;101551.38;5590109;31;34360;-70
2022/01/16 01:01:37;;;;;;;39.17;16.00;;;;;;;-3.13;100.00;101567.34;5590025;31;34127;-71
2022/01/16 01:04:41;;;;;;;38.90;16.90;;;;;;;-3.12;100.00;101553.47;5589966;31;34825;-71
2022/01/16 01:07:44;;;;;;;42.83;16.83;;;;;;;-3.08;100.00;101556.78;5589936;31;34213;-71
2022/01/16 01:11:06;;;;;;;38.45;17.50;;;;;;;-3.28;100.00;101548.84;5589992;31;34165;-71
2022/01/16 01:17:20;;;;;;;38.03;15.52;;;;;;;-3.29;100.00;101583.50;5589939;31;34652;-71
2022/01/16 01:20:25;;;;;;;35.67;15.43;;;;;;;-3.14;100.00;101562.19;5589958;31;34143;-71
2022/01/16 01:23:28;;;;;;;39.40;15.32;;;;;;;-3.33;100.00;101467.72;5589213;31;34627;-71
2022/01/16 01:26:36;;;;;;;39.60;15.55;;;;;;;-3.29;100.00;101485.72;5589145;31;34627;-71
2022/01/16 01:29:44;;;;;;;35.47;15.75;;;;;;;-3.56;100.00;101484.06;5589838;31;34857;-71
2022/01/16 01:32:48;;;;;;;37.20;15.65;;;;;;;-3.64;100.00;101489.53;5589131;31;34553;-71
2022/01/16 01:35:51;;;;;;;39.30;15.25;;;;;;;-3.57;100.00;101539.44;5589909;31;34198;-71
2022/01/16 01:38:54;;;;;;;40.42;16.25;;;;;;;-3.37;100.00;101539.63;5589707;31;34920;-71
2022/01/16 01:42:05;;;;;;;37.00;15.70;;;;;;;-3.12;100.00;101573.38;5589813;31;34243;-71
2022/01/16 01:51:56;;;;;;;42.80;17.25;;;;;;;-3.43;100.00;101586.50;5589534;31;34539;-71
2022/01/16 01:54:59;;;;;;;39.42;16.83;;;;;;;-3.46;100.00;101552.06;5589678;31;34990;-71
2022/01/16 01:58:01;;;;;;;40.65;17.05;;;;;;;-3.51;100.00;101541.81;5588873;31;34832;-71
2022/01/16 02:01:06;;;;;;;44.67;17.45;;;;;;;-3.52;100.00;101543.56;5588898;31;34607;-71
2022/01/16 02:04:09;;;;;;;43.65;16.98;;;;;;;-3.51;100.00;101534.03;5589586;31;34864;-71
2022/01/16 02:07:11;;;;;;;38.20;16.27;;;;;;;-3.50;100.00;101546.13;5589440;31;34597;-71
2022/01/16 02:10:14;;;;;;;44.00;17.55;;;;;;;-3.59;100.00;101536.06;5589387;31;34207;-71
2022/01/16 02:13:26;;;;;;;34.03;16.60;;;;;;;-3.65;100.00;101550.06;5589479;31;34212;-71
2022/01/16 02:36:34;;;;;;;34.83;15.43;;;;;;;-4.03;100.00;101568.56;5589233;31;34895;-71
2022/01/16 02:39:42;;;;;;;40.38;15.77;;;;;;;-4.14;100.00;101565.44;5589186;31;34214;-71
2022/01/16 02:42:49;;;;;;;33.42;15.18;;;;;;;-4.28;100.00;101583.13;5589101;31;34282;-71
2022/01/16 02:46:08;;;;;;;38.13;15.65;;;;;;;-4.28;100.00;101563.25;5589298;31;34254;-71
2022/01/16 02:49:32;;;;;;;32.67;15.45;;;;;;;-4.22;100.00;101578.63;5589208;31;34287;-71
2022/01/16 02:52:35;;;;;;;37.92;15.43;;;;;;;-4.29;100.00;101584.00;5588415;31;34266;-71
2022/01/16 02:55:41;;;;;;;36.47;15.68;;;;;;;-4.17;100.00;101578.50;5588959;31;34837;-71
2022/01/16 02:58:45;;;;;;;35.00;15.05;;;;;;;-4.24;100.00;101582.13;5589201;31;34299;-71
2022/01/16 03:01:49;;;;;;;32.80;14.50;;;;;;;-4.30;100.00;101571.94;5589103;31;34323;-71
2022/01/16 03:04:52;;;;;;;31.00;15.38;;;;;;;-4.04;100.00;101572.87;5588745;31;34949;-71
2022/01/16 03:07:55;;;;;;;39.28;15.75;;;;;;;-4.18;100.00;101567.28;5588656;31;34239;-71
2022/01/16 03:14:11;;;;;;;33.78;16.02;;;;;;;-4.43;100.00;101563.69;5588752;31;34841;-71
2022/01/16 03:17:23;;;;;;;32.65;15.45;;;;;;;-4.48;100.00;101561.25;5590651;31;34684;-71
2022/01/16 03:23:51;;;;;;;34.47;15.48;;;;;;;-4.21;100.00;101562.16;5591275;31;34157;-71
2022/01/16 03:26:56;;;;;;;32.40;14.75;;;;;;;-4.29;100.00;101564.12;5590944;31;34149;-71
2022/01/16 03:30:00;;;;;;;33.05;15.13;;;;;;;-4.43;100.00;101558.50;5590819;31;34652;-71
2022/01/16 03:33:06;;;;;;;35.30;15.85;;;;;;;-4.57;100.00;101556.31;5590812;31;34265;-72
2022/01/16 03:36:08;;;;;;;34.90;15.90;;;;;;;-4.64;100.00;101543.56;5591121;31;35410;-72
2022/01/16 03:39:11;;;;;;;31.27;14.90;;;;;;;-4.59;100.00;101549.47;5590831;31;34236;-72
2022/01/16 03:42:14;;;;;;;34.40;15.18;;;;;;;-4.66;100.00;101541.06;5591161;31;35474;-72
2022/01/16 03:45:17;;;;;;;33.80;14.45;;;;;;;-4.70;100.00;101541.19;5590794;31;34877;-72
2022/01/16 03:48:20;;;;;;;35.42;14.90;;;;;;;-4.80;100.00;101540.59;5590589;31;34999;-72
2022/01/16 03:51:23;;;;;;;33.00;14.75;;;;;;;-4.85;100.00;101535.53;5590557;31;34253;-72
2022/01/16 03:54:30;;;;;;;34.65;15.10;;;;;;;-4.90;100.00;101536.56;5590718;31;34204;-71
2022/01/16 03:57:33;;;;;;;33.50;15.25;;;;;;;-4.92;100.00;101540.91;5589938;31;34619;-72
2022/01/16 04:00:36;;;;;;;35.60;16.02;;;;;;;-4.71;100.00;101529.13;5590657;31;34637;-72
2022/01/16 04:03:39;;;;;;;37.85;16.37;;;;;;;-4.37;100.00;101529.84;5590638;31;34190;-72
2022/01/16 04:06:42;;;;;;;33.22;15.57;;;;;;;-4.53;100.00;101529.44;5589887;31;33813;-72
2022/01/16 04:09:44;;;;;;;32.95;15.90;;;;;;;-4.49;100.00;101540.56;5590486;31;34300;-71
2022/01/16 04:12:47;;;;;;;36.92;16.05;;;;;;;-4.52;100.00;101540.66;5590587;31;34609;-72
2022/01/16 04:15:50;;;;;;;37.28;17.05;;;;;;;-4.58;100.00;101548.59;5590537;31;34820;-72
2022/01/16 04:18:52;;;;;;;35.80;16.85;;;;;;;-4.60;100.00;101537.44;5590497;31;34352;-72
2022/01/16 04:21:55;;;;;;;36.20;15.95;;;;;;;-4.64;100.00;101546.16;5590470;31;34173;-72
2022/01/16 04:24:58;;;;;;;44.60;17.05;;;;;;;-4.75;100.00;101540.47;5590437;31;34239;-72
2022/01/16 04:28:01;;;;;;;39.22;17.42;;;;;;;-4.84;100.00;101547.56;5590360;31;34192;-72
2022/01/16 04:31:03;;;;;;;40.97;18.05;;;;;;;-4.77;100.00;101548.25;5590301;31;34859;-72
2022/01/16 04:34:06;;;;;;;37.70;17.45;;;;;;;-4.83;100.00;101549.28;5590287;31;34273;-72
2022/01/16 04:37:09;;;;;;;38.83;17.12;;;;;;;-4.69;100.00;101554.06;5590549;31;34646;-72
2022/01/16 04:40:13;;;;;;;34.55;16.58;;;;;;;-4.79;100.00;101538.84;5590313;31;35118;-72
2022/01/16 04:46:37;;;;;;;40.55;16.90;;;;;;;-5.03;100.00;101535.16;5590732;31;34885;-72
2022/01/16 04:49:39;;;;;;;39.05;17.62;;;;;;;-5.05;100.00;101524.87;5590056;31;34258;-72
2022/01/16 04:52:44;;;;;;;36.22;16.30;;;;;;;-5.02;100.00;101523.94;5590160;31;34262;-72
2022/01/16 04:55:48;;;;;;;39.40;17.42;;;;;;;-4.96;100.00;101532.41;5590428;31;34574;-73
2022/01/16 04:58:51;;;;;;;34.13;16.15;;;;;;;-4.78;100.00;101520.69;5590167;31;34320;-72
2022/01/16 05:01:53;;;;;;;39.25;16.83;;;;;;;-4.83;100.00;101530.31;5590158;31;34528;-72
2022/01/16 05:04:56;;;;;;;39.60;16.87;;;;;;;-5.04;100.00;101523.16;5590324;31;34275;-72
2022/01/16 05:07:58;;;;;;;42.05;17.98;;;;;;;-5.13;100.00;101531.16;5590402;31;34130;-72
2022/01/16 05:11:01;;;;;;;40.35;17.83;;;;;;;-5.18;100.00;101525.25;5590301;31;34461;-72
2022/01/16 05:17:06;;;;;;;38.38;18.48;;;;;;;-5.19;100.00;101518.37;5589991;31;34227;-72
2022/01/16 05:20:10;;;;;;;38.85;17.27;;;;;;;-5.26;100.00;101520.25;5590076;31;34170;-73
2022/01/16 05:23:12;;;;;;;40.03;17.37;;;;;;;-5.34;100.00;101523.06;5589950;31;34215;-72
2022/01/16 05:26:25;;;;;;;44.80;19.52;;;;;;;-5.40;100.00;101519.78;5590098;31;34257;-72
2022/01/16 05:29:28;;;;;;;46.58;20.60;;;;;;;-5.27;100.00;101513.38;5589753;31;34876;-72
2022/01/16 05:32:30;;;;;;;49.28;22.95;;;;;;;-5.29;100.00;101510.00;5589943;31;32860;-72
2022/01/16 05:35:33;;;;;;;55.80;23.85;;;;;;;-5.28;100.00;101528.06;5589862;31;34244;-72
2022/01/16 05:38:36;;;;;;;58.17;25.60;;;;;;;-5.28;100.00;101530.62;5589110;31;34340;-72
2022/01/16 05:41:39;;;;;;;56.97;24.02;;;;;;;-5.29;100.00;101528.13;5590088;31;34135;-72
2022/01/16 05:44:42;;;;;;;52.80;24.08;;;;;;;-5.48;100.00;101529.47;5590055;31;34283;-72
2022/01/16 05:47:45;;;;;;;50.28;24.05;;;;;;;-5.39;100.00;101535.25;5589747;31;34256;-73
2022/01/16 05:50:47;;;;;;;54.45;23.87;;;;;;;-5.27;100.00;101536.66;5589803;31;34886;-72
2022/01/16 05:53:51;;;;;;;52.55;24.15;;;;;;;-5.38;100.00;101549.91;5588821;31;34265;-72
2022/01/16 05:56:53;;;;;;;53.85;25.73;;;;;;;-5.54;100.00;101550.31;5589649;31;34185;-72
2022/01/16 05:59:56;;;;;;;53.05;23.27;;;;;;;-5.66;100.00;101543.69;5588837;31;34850;-72
2022/01/16 06:02:58;;;;;;;53.97;25.62;;;;;;;-5.73;100.00;101550.75;5589355;31;34269;-72
2022/01/16 06:06:01;;;;;;;57.62;25.58;;;;;;;-5.81;100.00;101557.81;5589599;31;34096;-73
2022/01/16 06:09:04;;;;;;;52.00;24.33;;;;;;;-5.85;100.00;101560.50;5589469;31;34869;-72
2022/01/16 06:12:08;;;;;;;54.88;25.27;;;;;;;-5.82;100.00;101565.63;5589458;31;34669;-72
2022/01/16 06:15:10;;;;;;;55.72;25.85;;;;;;;-5.79;100.00;101553.47;5589037;31;34807;-73
2022/01/16 06:18:14;;;;;;;55.70;24.73;;;;;;;-5.86;100.00;101564.00;5589443;31;34168;-72
2022/01/16 06:21:16;;;;;;;56.60;25.27;;;;;;;-5.62;100.00;101562.56;5588907;31;34864;-72
2022/01/16 06:24:19;;;;;;;51.30;23.35;;;;;;;-5.40;100.00;101568.91;5589475;31;34120;-72
2022/01/16 06:27:22;;;;;;;51.80;22.98;;;;;;;-5.37;100.00;101568.81;5589299;31;34957;-73
2022/01/16 06:30:24;;;;;;;51.60;22.95;;;;;;;-5.35;100.00;101570.50;5589536;31;34307;-72
2022/01/16 06:33:28;;;;;;;46.67;22.75;;;;;;;-5.37;100.00;101568.81;5589192;31;34623;-72
2022/01/16 06:36:30;;;;;;;44.53;20.77;;;;;;;-5.45;100.00;101574.19;5589230;31;35479;-72
2022/01/16 06:39:34;;;;;;;47.08;20.75;;;;;;;-5.50;100.00;101580.34;5589247;31;35072;-73
2022/01/16 06:42:38;;;;;;;42.95;20.10;;;;;;;-5.65;100.00;101576.41;5589441;31;33992;-72
2022/01/16 06:45:40;;;;;;;43.53;20.70;;;;;;;-5.77;100.00;101582.72;5588972;31;34957;-72
2022/01/16 06:48:43;;;;;;;40.70;20.58;;;;;;;-5.78;100.00;101581.03;5588913;31;34819;-73
2022/01/16 06:51:46;;;;;;;42.65;20.88;;;;;;;-5.86;100.00;101587.25;5587435;31;34728;-72
2022/01/16 06:54:48;;;;;;;42.00;20.65;;;;;;;-5.91;100.00;101584.81;5588728;31;34679;-72
2022/01/16 06:57:51;;;;;;;42.50;21.20;;;;;;;-5.97;100.00;101590.09;5588890;31;34216;-72
2022/01/16 07:00:54;;;;;;;45.38;21.25;;;;;;;-5.94;100.00;101581.41;5588797;31;34564;-73
2022/01/16 07:03:57;;;;;;;46.17;22.13;;;;;;;-5.95;100.00;101575.41;5587927;31;34304;-73
2022/01/16 07:07:00;;;;;;;40.92;20.33;;;;;;;-5.99;100.00;101572.94;5589191;31;34264;-73
2022/01/16 07:10:04;;;;;;;41.95;20.85;;;;;;;-5.96;100.00;101568.56;5588717;31;34131;-73
2022/01/16 07:13:06;;;;;;;34.80;18.33;;;;;;;-5.91;100.00;101571.03;5588921;31;34201;-72
2022/01/16 07:16:09;;;;;;;42.97;20.05;;;;;;;-5.88;100.00;101573.53;5588580;31;34830;-73
2022/01/16 07:19:12;;;;;;;38.33;18.85;;;;;;;-5.76;100.00;101579.22;5588458;31;34231;-73
2022/01/16 07:22:15;;;;;;;41.08;20.15;;;;;;;-5.70;100.00;101594.59;5588469;31;34221;-73
2022/01/16 07:25:17;;;;;;;36.47;18.12;;;;;;;-5.66;100.00;101591.97;5588373;31;34897;-72
2022/01/16 07:28:21;;;;;;;38.30;18.20;;;;;;;-5.60;100.00;101596.97;5588436;31;34549;-73
2022/01/16 07:31:23;;;;;;;38.17;18.77;;;;;;;-5.61;100.00;101603.03;5588399;31;34267;-72
2022/01/16 07:34:26;;;;;;;44.75;18.73;;;;;;;-5.58;100.00;101609.00;5588170;31;34253;-73
2022/01/16 07:37:29;;;;;;;41.55;18.20;;;;;;;-5.58;100.00;101588.31;5588230;31;34718;-73
2022/01/16 07:40:32;;;;;;;38.00;19.25;;;;;;;-5.52;100.00;101588.19;5588212;31;34692;-72
2022/01/16 07:43:35;;;;;;;45.08;18.62;;;;;;;-5.45;100.00;101594.03;5588132;31;34224;-73
2022/01/16 07:46:38;;;;;;;41.65;18.20;;;;;;;-5.39;100.00;101597.31;5588009;31;34905;-73
2022/01/16 07:49:40;;;;;;;40.12;17.87;;;;;;;-5.39;100.00;101593.88;5587896;31;34260;-72
2022/01/16 07:52:44;;;;;;;39.65;18.08;;;;;;;-5.37;100.00;101600.69;5587667;31;34580;-72
2022/01/16 07:55:47;;;;;;;39.92;19.10;;;;;;;-5.37;100.00;101605.88;5587789;31;34584;-73
2022/01/16 07:58:50;;;;;;;36.33;17.60;;;;;;;-5.18;100.00;101605.44;5587162;31;34814;-73
2022/01/16 08:01:52;;;;;;;37.83;18.10;;;;;;;-5.27;100.00;101593.56;5588649;31;34273;-72
2022/01/16 08:04:55;;;;;;;38.05;16.98;;;;;;;-5.18;100.00;101603.72;5590509;31;34920;-72
2022/01/16 08:07:58;;;;;;;30.98;15.00;;;;;;;-5.06;99.70;101590.44;5590480;31;34293;-73
2022/01/16 08:11:00;;;;;;;32.08;14.75;;;;;;;-5.04;99.78;101593.00;5590554;31;35485;-72
2022/01/16 08:14:03;;;;;;;32.38;14.18;;;;;;;-5.01;100.00;101586.00;5590531;31;33654;-73
2022/01/16 08:17:06;;;;;;;29.17;13.73;;;;;;;-4.93;100.00;101576.28;5590408;31;34217;-73
2022/01/16 08:20:10;;;;;;;34.22;15.20;;;;;;;-4.82;98.80;101576.88;5590473;31;34104;-73
2022/01/16 08:23:13;;;;;;;32.88;14.45;;;;;;;-4.73;97.60;101582.66;5590537;31;34348;-73
2022/01/16 08:26:16;;;;;;;37.45;14.65;;;;;;;-4.65;97.01;101591.09;5590051;31;34245;-73
2022/01/16 08:29:20;;;;;;;34.25;15.60;;;;;;;-4.63;96.40;101581.53;5590233;31;34923;-73
2022/01/16 08:32:23;;;;;;;36.45;16.05;;;;;;;-4.51;97.07;101576.88;5590369;31;34364;-73
2022/01/16 08:35:26;;;;;;;34.75;14.98;;;;;;;-4.55;97.27;101577.81;5590240;31;34320;-73
2022/01/16 08:38:30;;;;;;;34.83;15.32;;;;;;;-4.45;97.01;101578.41;5590240;31;34546;-73
2022/01/16 08:41:37;;;;;;;36.13;15.63;;;;;;;-4.37;97.15;101563.53;5590071;31;34924;-73
2022/01/16 08:44:39;;;;;;;36.80;15.95;;;;;;;-4.26;97.33;101553.69;5590200;31;34164;-73
2022/01/16 08:47:42;;;;;;;38.70;15.75;;;;;;;-4.24;96.16;101549.31;5590134;31;34295;-73
2022/01/16 08:50:48;;;;;;;38.85;15.27;;;;;;;-4.19;96.01;101547.44;5589896;31;34956;-73
2022/01/16 08:53:51;;;;;;;38.05;14.87;;;;;;;-4.14;96.65;101536.94;5570422;32;34826;-73
2022/01/16 08:56:54;;;;;;;34.60;15.95;;;;;;;-3.93;96.03;101533.69;5570500;32;34172;-73
2022/01/16 08:59:57;;;;;;;34.72;16.20;;;;;;;-4.00;95.98;101529.56;5570360;32;34865;-73
2022/01/16 09:02:59;;;;;;;42.00;16.40;;;;;;;-3.81;96.64;101532.44;5570363;32;34841;-73
2022/01/16 09:06:02;;;;;;;33.60;15.32;;;;;;;-3.57;95.37;101521.28;5570402;32;34164;-73
2022/01/16 09:09:05;;;;;;;34.17;16.83;;;;;;;-3.40;95.23;101515.53;5570404;32;34231;-73
2022/01/16 09:12:08;;;;;;;38.35;16.08;;;;;;;-3.43;93.88;101518.22;5556511;32;34918;-73
2022/01/16 09:15:12;;;;;;;36.58;17.05;;;;;;;-3.52;93.90;101512.44;5569324;32;34818;-73
2022/01/16 09:18:17;;;;;;;38.80;15.85;;;;;;;-3.40;94.84;101513.78;5570401;32;34549;-73
2022/01/16 09:21:19;;;;;;;39.33;16.73;;;;;;;-3.13;93.37;101512.84;5570336;32;34852;-73
2022/01/16 09:24:22;;;;;;;35.95;17.20;;;;;;;-3.10;93.37;101510.12;5570676;32;34120;-73
2022/01/16 09:27:24;;;;;;;36.65;16.80;;;;;;;-2.92;92.27;101518.19;5570204;32;34864;-73
2022/01/16 09:30:28;;;;;;;37.00;16.37;;;;;;;-2.89;92.27;101512.88;5570032;32;34873;-73
2022/01/16 09:33:31;;;;;;;38.42;17.77;;;;;;;-2.89;91.88;101515.47;5556737;32;34123;-73
2022/01/16 09:36:37;;;;;;;40.85;17.90;;;;;;;-2.80;92.71;101508.19;5570113;32;34816;-73
2022/01/16 09:39:40;;;;;;;42.00;16.60;;;;;;;-2.67;92.37;101506.84;5570190;32;34368;-73
2022/01/16 09:42:43;;;;;;;35.35;16.73;;;;;;;-2.55;91.25;101497.75;5570123;32;34803;-73
2022/01/16 09:45:46;;;;;;;39.42;18.50;;;;;;;-2.65;92.09;101488.59;5569693;32;34509;-73
2022/01/16 09:48:49;;;;;;;39.20;17.33;;;;;;;-2.52;91.26;101491.59;5569829;32;34810;-73
2022/01/16 09:51:52;;;;;;;41.78;17.08;;;;;;;-2.51;90.62;101486.31;5576276;31;34626;-73
2022/01/16 09:54:55;;;;;;;35.80;16.95;;;;;;;-2.45;90.91;101486.09;5589060;31;34322;-73
2022/01/16 09:57:59;;;;;;;40.10;16.90;;;;;;;-2.31;91.25;101486.41;5589514;31;34873;-73
2022/01/16 10:01:02;;;;;;;41.15;17.55;;;;;;;-2.25;91.08;101468.00;5589389;31;34214;-73
2022/01/16 10:04:30;;;;;;;40.40;17.67;;;;;;;-2.13;90.85;101471.03;5589410;31;34614;-73
2022/01/16 10:07:40;;;;;;;38.20;16.65;;;;;;;-2.04;90.96;101462.88;5589172;31;34170;-73
2022/01/16 10:10:44;;;;;;;;;;;;;;;-1.91;89.59;101461.44;5589674;31;35064;-73
2022/01/16 10:14:00;;;;;;;36.90;17.17;;;;;;;-1.83;90.30;101460.22;5589201;31;34559;-73
2022/01/16 10:17:15;;;;;;;41.25;18.52;;;;;;;-2.00;88.14;101448.81;5589259;31;34186;-73
2022/01/16 10:20:18;;;;;;;38.72;17.30;;;;;;;-1.81;87.66;101447.16;5589134;31;34506;-73
2022/01/16 10:23:26;;;;;;;38.50;17.08;;;;;;;-1.65;87.24;101442.19;5589336;31;34235;-73
2022/01/16 10:26:28;;;;;;;35.35;17.15;;;;;;;-1.78;87.90;101445.28;5588487;31;34912;-73
2022/01/16 10:29:31;;;;;;;42.00;17.95;;;;;;;-1.50;87.79;101441.53;5588990;31;34125;-73
2022/01/16 10:32:38;;;;;;;39.72;18.23;;;;;;;-1.49;87.81;101435.41;5589289;31;34861;-73
2022/01/16 10:35:47;;;;;;;42.75;17.50;;;;;;;-1.44;87.67;101423.87;5589479;31;34256;-73
2022/01/16 10:39:07;;;;;;;41.97;17.85;;;;;;;-1.42;87.50;101437.69;5588954;31;34860;-73
2022/01/16 10:42:16;;;;;;;40.15;18.08;;;;;;;-1.23;87.26;101439.47;5589269;31;34117;-73
2022/01/16 10:45:23;;;;;;;37.38;17.80;;;;;;;-1.24;86.86;101424.78;5588897;31;34295;-73
2022/01/16 10:48:26;;;;;;;39.92;18.40;;;;;;;-1.44;87.69;101417.81;5588864;31;34281;-73
2022/01/16 10:51:33;;;;;;;38.60;18.15;;;;;;;-1.37;88.07;101407.09;5588441;31;34447;-73
2022/01/16 10:54:38;;;;;;;33.45;16.83;;;;;;;-1.18;87.21;101408.88;5588987;31;34268;-73
2022/01/16 10:57:41;;;;;;;44.22;18.00;;;;;;;-1.21;86.12;101407.25;5589006;31;34906;-72
2022/01/16 11:01:03;;;;;;;36.20;17.08;;;;;;;-1.04;86.03;101404.75;5588882;31;34649;-72
2022/01/16 11:04:06;;;;;;;34.42;17.25;;;;;;;-0.94;86.10;101402.59;5588690;31;34369;-73
2022/01/16 11:07:11;;;;;;;38.03;18.08;;;;;;;-1.15;87.41;101406.13;5588474;31;34940;-73
2022/01/16 11:10:37;;;;;;;37.08;16.70;;;;;;;-1.07;87.96;101401.44;5588939;31;35149;-73
2022/01/16 11:13:41;;;;;;;38.83;17.48;;;;;;;-0.95;86.75;101396.53;5588507;31;34816;-72
2022/01/16 11:16:43;;;;;;;38.92;18.17;;;;;;;-0.88;87.71;101399.69;5588554;31;34882;-72
2022/01/16 11:19:46;;;;;;;41.03;19.25;;;;;;;-0.80;87.08;101392.38;5588362;31;34296;-72
2022/01/16 11:23:05;;;;;;;38.58;17.42;;;;;;;-0.68;85.88;101389.22;5587667;31;34954;-72
2022/01/16 11:26:08;;;;;;;43.55;17.65;;;;;;;-0.74;85.81;101391.25;5588152;31;34160;-72
2022/01/16 11:29:12;;;;;;;39.70;17.95;;;;;;;-0.49;85.23;101378.75;5587620;31;34239;-72
2022/01/16 11:32:15;;;;;;;38.00;17.90;;;;;;;-0.44;84.74;101382.81;5587943;31;34906;-72
2022/01/16 11:35:19;;;;;;;39.65;18.05;;;;;;;-0.48;84.66;101375.22;5587545;31;34750;-72
2022/01/16 11:38:28;;;;;;;41.28;18.00;;;;;;;-0.32;84.13;101360.53;5590094;31;34192;-71
2022/01/16 11:41:35;;;;;;;38.95;17.60;;;;;;;-0.17;83.10;101359.78;5590750;31;34871;-72
2022/01/16 11:44:49;;;;;;;42.22;18.00;;;;;;;-0.30;83.42;101352.66;5590617;31;35538;-71
2022/01/16 11:48:00;;;;;;;35.13;16.87;;;;;;;-0.05;82.24;101361.78;5590005;31;34282;-71
2022/01/16 11:51:05;;;;;;;42.35;19.52;;;;;;;-0.04;81.95;101355.63;5590392;31;34794;-72
2022/01/16 11:54:09;;;;;;;41.20;20.08;;;;;;;-0.20;82.57;101357.34;5590547;31;34979;-71
2022/01/16 11:57:24;;;;;;;52.88;20.90;;;;;;;-0.05;83.11;101355.75;5590356;31;34424;-71
2022/01/16 12:00:45;;;;;;;46.90;21.42;;;;;;;0.12;82.40;101339.22;5590691;31;34283;-71
2022/01/16 12:03:48;;;;;;;48.58;20.95;;;;;;;0.24;82.75;101325.56;5590768;31;34863;-71
2022/01/16 12:06:51;;;;;;;52.30;21.35;;;;;;;0.27;81.57;101333.22;5590392;31;34334;-72
2022/01/16 12:10:00;;;;;;;47.13;20.75;;;;;;;0.30;82.17;101323.47;5588736;31;35216;-71
2022/01/16 12:13:02;;;;;;;45.60;21.00;;;;;;;0.41;81.58;101323.75;5590634;31;34811;-71
2022/01/16 12:16:34;;;;;;;45.97;20.95;;;;;;;0.44;81.26;101310.53;5590394;31;35497;-71
2022/01/16 12:19:43;;;;;;;44.65;20.77;;;;;;;0.81;81.14;101306.81;5590346;31;34168;-71
2022/01/16 12:23:07;;;;;;;51.80;21.77;;;;;;;1.60;75.97;101304.97;5590498;31;34182;-72
2022/01/16 12:26:33;;;;;;;50.33;20.88;;;;;;;1.91;75.03;101293.56;5590137;31;34922;-70
2022/01/16 12:30:15;;;;;;;40.65;19.83;;;;;;;2.29;72.95;101296.53;5590456;31;34486;-70
2022/01/16 12:33:50;;;;;;;44.45;20.25;;;;;;;2.42;73.73;101286.16;5590308;31;34319;-72
2022/01/16 12:36:53;;;;;;;46.10;19.83;;;;;;;2.34;72.99;101285.75;5578872;31;34230;-72
2022/01/16 12:39:56;;;;;;;39.72;18.80;;;;;;;2.06;73.29;101297.91;5590273;31;34899;-72
2022/01/16 12:43:04;;;;;;;43.33;20.27;;;;;;;1.65;74.88;101295.09;5590097;31;34853;-72
2022/01/16 12:46:09;;;;;;;44.75;18.87;;;;;;;1.60;75.48;101291.88;5590441;31;35470;-72
2022/01/16 12:49:26;;;;;;;42.45;19.25;;;;;;;2.14;73.70;101297.44;5590076;31;34215;-72
2022/01/16 12:52:29;;;;;;;42.80;19.05;;;;;;;2.30;72.24;101292.97;5590060;31;34318;-72
2022/01/16 12:55:34;;;;;;;40.58;18.87;;;;;;;2.44;72.48;101289.50;5589968;31;34315;-72
2022/01/16 12:58:37;;;;;;;37.85;17.90;;;;;;;2.77;70.73;101286.56;5590176;31;34808;-72
2022/01/16 13:01:57;;;;;;;36.35;18.52;;;;;;;2.10;72.24;101288.09;5589995;31;34248;-72
2022/01/16 13:04:59;;;;;;;40.50;20.25;;;;;;;2.69;70.87;101278.38;5590197;31;34606;-72
2022/01/16 13:08:10;;;;;;;40.47;18.42;;;;;;;3.00;68.45;101284.19;5589287;31;34623;-72
2022/01/16 13:11:15;;;;;;;33.88;18.00;;;;;;;3.03;68.20;101280.56;5589827;31;34222;-71
2022/01/16 13:14:20;;;;;;;43.78;20.45;;;;;;;2.74;70.49;101264.03;5590016;31;34245;-72
2022/01/16 13:17:22;;;;;;;43.85;19.60;;;;;;;2.52;70.72;101263.69;5590305;31;34883;-72
2022/01/16 13:20:27;;;;;;;38.78;19.65;;;;;;;2.25;71.51;101265.38;5589992;31;34150;-71
2022/01/16 13:23:30;;;;;;;40.15;19.23;;;;;;;2.15;72.62;101265.09;5589858;31;34349;-71
2022/01/16 13:26:34;;;;;;;38.92;19.12;;;;;;;2.23;71.82;101269.88;5589930;31;34091;-70
2022/01/16 13:29:38;;;;;;;41.37;18.87;;;;;;;1.10;75.22;101263.41;5589786;31;34136;-70
2022/01/16 13:32:44;;;;;;;35.25;17.45;;;;;;;1.34;76.22;101263.78;5589558;31;34270;-71
2022/01/16 13:35:47;;;;;;;40.85;19.95;;;;;;;1.40;75.79;101262.59;5589874;31;34782;-71
2022/01/16 13:38:50;;;;;;;43.50;20.30;;;;;;;0.97;77.07;101256.34;5590124;31;34905;-70
2022/01/16 13:42:35;;;;;;;43.65;20.37;;;;;;;0.98;77.54;101248.41;5589661;31;34206;-70
2022/01/16 13:45:41;;;;;;;42.40;19.70;;;;;;;0.63;78.66;101239.06;5589160;31;35476;-70
2022/01/16 13:48:44;;;;;;;46.95;20.02;;;;;;;0.51;79.82;101240.56;5588881;31;34460;-70
2022/01/16 13:51:55;;;;;;;43.58;20.77;;;;;;;0.59;80.22;101238.38;5589777;31;35492;-70
2022/01/16 13:55:09;;;;;;;51.45;21.50;;;;;;;0.60;79.45;101241.84;5589590;31;33797;-70
2022/01/16 13:58:15;;;;;;;44.25;20.88;;;;;;;0.75;79.59;101249.69;5589543;31;35461;-70
2022/01/16 14:01:25;;;;;;;41.78;19.35;;;;;;;0.71;78.95;101237.72;5589248;31;34652;-70
2022/01/16 14:04:28;;;;;;;46.55;19.92;;;;;;;0.69;79.70;101231.72;5589582;31;34815;-70
2022/01/16 14:07:31;;;;;;;48.90;21.05;;;;;;;0.88;79.01;101223.72;5589601;31;34215;-70
2022/01/16 14:10:38;;;;;;;49.88;20.52;;;;;;;0.94;78.91;101218.16;5589473;31;34129;-71
2022/01/16 14:13:58;;;;;;;42.83;20.12;;;;;;;0.73;79.20;101214.13;5589474;31;34318;-70
2022/01/16 14:21:58;;;;;;;51.20;20.37;;;;;;;0.21;81.52;101211.75;5588607;31;34569;-70
2022/01/16 14:23:37;;;;;;;43.45;19.90;;;;;;;0.31;82.37;101220.75;5585111;31;34297;-71
2022/01/16 14:26:51;;;;;;;46.17;20.15;;;;;;;0.45;82.04;101222.63;5589205;31;34584;-70
2022/01/16 14:29:56;;;;;;;52.45;21.77;;;;;;;0.34;81.69;101201.47;5589114;31;35615;-70
2022/01/16 14:32:59;;;;;;;46.15;20.00;;;;;;;0.18;82.52;101204.09;5589156;31;35428;-70
2022/01/16 14:36:02;;;;;;;46.20;20.85;;;;;;;0.10;83.35;101205.41;5589293;31;34279;-70
2022/01/16 14:39:05;;;;;;;57.28;24.00;;;;;;;0.15;82.83;101199.00;5588971;31;34205;-69
2022/01/16 14:42:09;;;;;;;50.12;23.10;;;;;;;-0.06;84.67;101192.34;5589238;31;34317;-70
2022/01/16 14:45:12;;;;;;;48.60;22.48;;;;;;;-0.07;83.74;101207.13;5589059;31;34256;-69
2022/01/16 14:48:15;;;;;;;55.67;23.98;;;;;;;-0.15;84.54;101201.50;5588945;31;35477;-70